createdAt,value
2016-02-14T00:00:41.198Z,76.55
2016-02-14T00:01:41.216Z,77.12
2016-02-14T00:02:41.172Z,76.59
2016-02-14T00:03:41.190Z,76.74
2016-02-14T00:04:41.177Z,76.68
2016-02-14T00:05:41.180Z,76.5
2016-02-14T00:06:41.182Z,76.46
2016-02-14T00:07:41.154Z,76.84
2016-02-14T00:08:41.173Z,76.74
2016-02-14T00:09:41.160Z,77.03
2016-02-14T00:10:41.147Z,76.68
2016-02-14T00:11:41.149Z,76.78
2016-02-14T00:12:41.136Z,76.55
2016-02-14T00:13:41.140Z,76.65
2016-02-14T00:14:41.126Z,76.74
2016-02-14T00:15:41.128Z,76.74
2016-02-14T00:16:41.117Z,76.93
2016-02-14T00:17:41.150Z,76.84
2016-02-14T00:18:41.106Z,76.46
2016-02-14T00:19:41.108Z,76.74
2016-02-14T00:20:41.127Z,76.12
2016-02-14T00:21:41.098Z,76.08
2016-02-14T00:22:41.086Z,76.68
2016-02-14T00:23:41.088Z,76.59
2016-02-14T00:24:41.105Z,76.87
2016-02-14T00:25:41.109Z,76.12
2016-02-14T00:26:41.080Z,76.68
2016-02-14T00:27:41.083Z,76.08
2016-02-14T00:28:41.070Z,76.21
2016-02-14T00:29:41.072Z,76.31
2016-02-14T00:30:41.061Z,76.59
2016-02-14T00:31:41.085Z,76.21
2016-02-14T00:32:41.072Z,76.21
2016-02-14T00:33:41.043Z,76.59
2016-02-14T00:34:41.062Z,76.31
2016-02-14T00:35:41.038Z,76.5
2016-02-14T00:36:41.041Z,76.87
2016-02-14T00:37:41.044Z,76.59
2016-02-14T00:38:41.030Z,76.68
2016-02-14T00:39:41.034Z,76.5
2016-02-14T00:40:41.020Z,76.59
2016-02-14T00:41:41.038Z,76.31
2016-02-14T00:42:41.026Z,76.87
2016-02-14T00:43:41.013Z,76.31
2016-02-14T00:44:41.015Z,76.5
2016-02-14T00:45:41.018Z,76.59
2016-02-14T00:46:41.021Z,76.31
2016-02-14T00:47:41.007Z,76.21
2016-02-14T00:48:41.011Z,76.78
2016-02-14T00:49:40.998Z,76.74
2016-02-14T00:50:41.001Z,76.87
2016-02-14T00:51:41.004Z,76.87
2016-02-14T00:52:40.990Z,76.31
2016-02-14T00:53:40.976Z,76.78
2016-02-14T00:54:40.965Z,76.59
2016-02-14T00:55:41.014Z,76.21
2016-02-14T00:56:41.032Z,75.84
2016-02-14T00:57:40.957Z,76.31
2016-02-14T00:58:40.975Z,76.4
2016-02-14T00:59:40.962Z,76.31
2016-02-14T01:00:40.965Z,76.68
2016-02-14T01:01:40.967Z,76.21
2016-02-14T01:02:40.970Z,76.4
2016-02-14T01:03:40.942Z,76.12
2016-02-14T01:04:40.944Z,76.31
2016-02-14T01:05:40.947Z,76.4
2016-02-14T01:06:40.950Z,76.21
2016-02-14T01:07:40.937Z,76.21
2016-02-14T01:08:40.924Z,76.12
2016-02-14T01:09:40.927Z,76.21
2016-02-14T01:10:40.929Z,76.4
2016-02-14T01:11:40.916Z,76.21
2016-02-14T01:12:40.919Z,76.59
2016-02-14T01:13:40.905Z,76.5
2016-02-14T01:14:40.925Z,76.21
2016-02-14T01:15:40.911Z,76.12
2016-02-14T01:16:40.914Z,75.84
2016-02-14T01:17:40.901Z,76.21
2016-02-14T01:18:40.888Z,76.4
2016-02-14T01:19:40.891Z,76.59
2016-02-14T01:20:40.893Z,76.12
2016-02-14T01:21:40.896Z,76.4
2016-02-14T01:22:40.883Z,76.21
2016-02-14T01:23:40.886Z,76.21
2016-02-14T01:24:40.874Z,76.21
2016-02-14T01:25:40.860Z,76.21
2016-02-14T01:26:40.878Z,76.5
2016-02-14T01:27:40.866Z,76.5
2016-02-14T01:28:40.853Z,76.03
2016-02-14T01:29:40.855Z,76.03
2016-02-14T01:30:40.858Z,75.84
2016-02-14T01:31:40.861Z,76.31
2016-02-14T01:32:40.863Z,76.12
2016-02-14T01:33:40.851Z,76.21
2016-02-14T01:34:40.853Z,76.4
2016-02-14T01:35:40.855Z,76.31
2016-02-14T01:36:40.828Z,76.21
2016-02-14T01:37:40.830Z,75.84
2016-02-14T01:38:40.816Z,76.31
2016-02-14T01:39:40.820Z,76.21
2016-02-14T01:40:40.822Z,75.84
2016-02-14T01:41:40.825Z,76.21
2016-02-14T01:42:40.812Z,75.84
2016-02-14T01:43:40.814Z,76.21
2016-02-14T01:44:40.817Z,76.21
2016-02-14T01:45:40.805Z,76.03
2016-02-14T01:46:40.807Z,76.21
2016-02-14T01:47:40.651Z,76.4
2016-02-14T01:48:40.812Z,76.21
2016-02-14T01:49:40.799Z,76.5
2016-02-14T01:50:40.802Z,75.93
2016-02-14T01:51:40.789Z,76.21
2016-02-14T01:52:40.807Z,75.84
2016-02-14T01:53:40.776Z,75.93
2016-02-14T01:54:40.779Z,75.84
2016-02-14T01:55:40.781Z,76.12
2016-02-14T01:56:40.803Z,75.93
2016-02-14T01:57:40.787Z,76.03
2016-02-14T01:58:40.980Z,76.21
2016-02-14T01:59:40.762Z,76.03
2016-02-14T02:00:40.765Z,75.84
2016-02-14T02:01:40.751Z,75.84
2016-02-14T02:02:40.738Z,75.93
2016-02-14T02:03:40.756Z,76.12
2016-02-14T02:04:40.587Z,76.12
2016-02-14T02:05:40.746Z,76.12
2016-02-14T02:06:40.748Z,75.84
2016-02-14T02:07:40.736Z,75.93
2016-02-14T02:08:40.739Z,75.93
2016-02-14T02:09:40.726Z,76.21
2016-02-14T02:10:40.728Z,75.84
2016-02-14T02:11:40.731Z,75.93
2016-02-14T02:12:40.718Z,76.12
2016-02-14T02:13:40.706Z,76.31
2016-02-14T02:14:40.708Z,76.12
2016-02-14T02:15:40.726Z,75.84
2016-02-14T02:16:40.713Z,76.21
2016-02-14T02:17:40.716Z,76.21
2016-02-14T02:18:40.735Z,76.12
2016-02-14T02:19:40.706Z,76.12
2016-02-14T02:20:40.693Z,76.31
2016-02-14T02:21:40.710Z,76.12
2016-02-14T02:22:40.714Z,76.31
2016-02-14T02:23:40.701Z,76.12
2016-02-14T02:24:40.687Z,76.21
2016-02-14T02:25:40.691Z,76.4
2016-02-14T02:26:40.693Z,76.21
2016-02-14T02:27:40.884Z,75.93
2016-02-14T02:28:40.887Z,76.31
2016-02-14T02:29:40.670Z,76.31
2016-02-14T02:30:40.688Z,76.21
2016-02-14T02:31:40.676Z,76.12
2016-02-14T02:32:40.678Z,76.4
2016-02-14T02:33:40.665Z,76.31
2016-02-14T02:34:40.668Z,76.4
2016-02-14T02:35:40.655Z,76.21
2016-02-14T02:36:40.673Z,76.31
2016-02-14T02:37:40.645Z,76.4
2016-02-14T02:38:40.647Z,76.21
2016-02-14T02:39:40.634Z,76.12
2016-02-14T02:40:40.637Z,76.21
2016-02-14T02:41:40.639Z,76.4
2016-02-14T02:42:40.658Z,76.12
2016-02-14T02:43:40.645Z,76.12
2016-02-14T02:44:40.647Z,75.84
2016-02-14T02:45:40.650Z,76.4
2016-02-14T02:46:40.622Z,76.03
2016-02-14T02:47:40.625Z,75.84
2016-02-14T02:48:40.627Z,76.12
2016-02-14T02:49:40.630Z,76.12
2016-02-14T02:50:40.633Z,75.93
2016-02-14T02:51:40.604Z,75.93
2016-02-14T02:52:40.607Z,76.15
2016-02-14T02:53:40.625Z,76.21
2016-02-14T02:54:40.613Z,76.03
2016-02-14T02:55:40.694Z,76.21
2016-02-14T02:56:40.790Z,76.21
2016-02-14T02:57:40.589Z,75.84
2016-02-14T02:58:40.593Z,75.93
2016-02-14T02:59:40.579Z,75.93
2016-02-14T03:00:40.565Z,76.31
2016-02-14T03:01:40.568Z,75.64
2016-02-14T03:02:40.571Z,76.15
2016-02-14T03:03:40.573Z,76.12
2016-02-14T03:04:40.562Z,76.5
2016-02-14T03:05:40.579Z,76.12
2016-02-14T03:06:40.566Z,76.31
2016-02-14T03:07:40.554Z,76.03
2016-02-14T03:08:40.556Z,76.21
2016-02-14T03:09:40.558Z,76.4
2016-02-14T03:10:40.546Z,76.12
2016-02-14T03:11:40.564Z,76.03
2016-02-14T03:12:40.551Z,76.12
2016-02-14T03:13:40.539Z,76.21
2016-02-14T03:14:40.541Z,76.31
2016-02-14T03:15:40.528Z,76.59
2016-02-14T03:16:40.531Z,76.5
2016-02-14T03:17:40.534Z,76.68
2016-02-14T03:18:40.521Z,76.68
2016-02-14T03:19:40.538Z,76.68
2016-02-14T03:20:40.527Z,76.03
2016-02-14T03:21:40.513Z,76.03
2016-02-14T03:22:40.500Z,75.64
2016-02-14T03:23:40.534Z,76.5
2016-02-14T03:24:40.521Z,76.03
2016-02-14T03:25:40.524Z,76.21
2016-02-14T03:26:39.838Z,76.25
2016-02-14T03:27:40.498Z,76.12
2016-02-14T03:28:40.501Z,76.12
2016-02-14T03:29:40.504Z,76.21
2016-02-14T03:30:40.506Z,76.21
2016-02-14T03:31:40.493Z,76.21
2016-02-14T03:32:40.480Z,76.31
2016-02-14T03:33:40.482Z,76.12
2016-02-14T03:34:40.485Z,76.12
2016-02-14T03:35:40.473Z,76.4
2016-02-14T03:36:40.459Z,75.84
2016-02-14T03:37:40.478Z,76.03
2016-02-14T03:38:40.465Z,76.03
2016-02-14T03:39:40.452Z,76.31
2016-02-14T03:40:40.456Z,76.31
2016-02-14T03:41:40.442Z,76.5
2016-02-14T03:42:40.460Z,76.12
2016-02-14T03:43:40.447Z,76.4
2016-02-14T03:44:40.450Z,76.12
2016-02-14T03:45:40.436Z,75.84
2016-02-14T03:46:40.439Z,76.03
2016-02-14T03:47:40.458Z,76.21
2016-02-14T03:48:40.444Z,76.12
2016-02-14T03:49:40.417Z,75.84
2016-02-14T03:50:40.435Z,75.93
2016-02-14T03:51:40.421Z,76.21
2016-02-14T03:52:40.409Z,76.21
2016-02-14T03:53:40.411Z,76.12
2016-02-14T03:54:40.430Z,76.21
2016-02-14T03:55:40.448Z,76.4
2016-02-14T03:56:40.451Z,76.12
2016-02-14T03:57:40.391Z,76.21
2016-02-14T03:58:40.394Z,76.21
2016-02-14T03:59:40.396Z,76.59
2016-02-14T04:00:40.399Z,76.31
2016-02-14T04:01:40.386Z,76.4
2016-02-14T04:02:40.390Z,76.21
2016-02-14T04:03:40.376Z,76.4
2016-02-14T04:04:40.378Z,76.4
2016-02-14T04:05:40.366Z,76.31
2016-02-14T04:06:40.368Z,76.31
2016-02-14T04:07:40.371Z,76.12
2016-02-14T04:08:40.358Z,76.21
2016-02-14T04:09:40.361Z,76.31
2016-02-14T04:10:40.347Z,76.21
2016-02-14T04:11:40.351Z,76.31
2016-02-14T04:12:40.353Z,76.31
2016-02-14T04:13:40.339Z,76.78
2016-02-14T04:14:40.343Z,76.68
2016-02-14T04:15:40.345Z,76.21
2016-02-14T04:16:40.348Z,76.59
2016-02-14T04:17:40.336Z,76.31
2016-02-14T04:18:40.338Z,76.87
2016-02-14T04:19:40.341Z,76.68
2016-02-14T04:20:40.328Z,77.06
2016-02-14T04:21:40.330Z,76.68
2016-02-14T04:22:40.318Z,76.97
2016-02-14T04:23:40.321Z,76.87
2016-02-14T04:24:40.323Z,77.06
2016-02-14T04:25:40.341Z,76.97
2016-02-14T04:26:40.313Z,77.45
2016-02-14T04:27:40.300Z,77.35
2016-02-14T04:28:40.318Z,77.25
2016-02-14T04:29:40.305Z,77.64
2016-02-14T04:30:40.307Z,77.54
2016-02-14T04:31:40.295Z,77.73
2016-02-14T04:32:40.281Z,77.45
2016-02-14T04:33:40.300Z,77.54
2016-02-14T04:34:40.271Z,77.35
2016-02-14T04:35:40.274Z,77.06
2016-02-14T04:36:40.277Z,77.45
2016-02-14T04:37:40.279Z,77.45
2016-02-14T04:38:40.282Z,77.45
2016-02-14T04:39:40.285Z,77.45
2016-02-14T04:40:40.272Z,77.64
2016-02-14T04:41:40.259Z,77.83
2016-02-14T04:42:40.266Z,77.64
2016-02-14T04:43:40.268Z,77.45
2016-02-14T04:44:40.272Z,77.45
2016-02-14T04:45:40.258Z,77.64
2016-02-14T04:46:40.246Z,77.92
2016-02-14T04:47:40.248Z,78.02
2016-02-14T04:48:40.251Z,78.02
2016-02-14T04:49:40.237Z,77.73
2016-02-14T04:50:40.241Z,77.92
2016-02-14T04:51:40.228Z,77.64
2016-02-14T04:52:40.245Z,78.02
2016-02-14T04:53:40.248Z,77.83
2016-02-14T04:54:40.220Z,77.92
2016-02-14T04:55:40.285Z,77.64
2016-02-14T04:56:40.225Z,78.02
2016-02-14T04:57:40.212Z,78.11
2016-02-14T04:58:40.200Z,78.11
2016-02-14T04:59:40.218Z,78.39
2016-02-14T05:00:40.220Z,78.11
2016-02-14T05:01:40.208Z,78.11
2016-02-14T05:02:40.210Z,77.92
2016-02-14T05:03:40.214Z,77.92
2016-02-14T05:04:40.200Z,77.73
2016-02-14T05:05:40.186Z,78.11
2016-02-14T05:06:40.189Z,77.64
2016-02-14T05:07:40.192Z,78.2
2016-02-14T05:08:40.180Z,78.02
2016-02-14T05:09:40.167Z,78.3
2016-02-14T05:10:40.169Z,78.2
2016-02-14T05:11:40.156Z,78.3
2016-02-14T05:12:40.176Z,78.39
2016-02-14T05:13:40.163Z,78.02
2016-02-14T05:14:40.165Z,78.2
2016-02-14T05:15:40.169Z,78.02
2016-02-14T05:16:40.155Z,78.49
2016-02-14T05:17:40.158Z,78.2
2016-02-14T05:18:40.145Z,78.02
2016-02-14T05:19:40.147Z,77.73
2016-02-14T05:20:40.150Z,78.2
2016-02-14T05:21:40.138Z,77.83
2016-02-14T05:22:40.140Z,77.92
2016-02-14T05:23:40.143Z,78.11
2016-02-14T05:24:40.145Z,78.3
2016-02-14T05:25:40.133Z,78.49
2016-02-14T05:26:40.119Z,78.49
2016-02-14T05:27:40.122Z,78.02
2016-02-14T05:28:40.110Z,78.3
2016-02-14T05:29:40.112Z,78.58
2016-02-14T05:30:40.115Z,78.58
2016-02-14T05:31:40.118Z,78.2
2016-02-14T05:32:40.120Z,78.3
2016-02-14T05:33:40.106Z,78.49
2016-02-14T05:34:40.095Z,78.39
2016-02-14T05:35:40.097Z,78.58
2016-02-14T05:36:40.084Z,78.58
2016-02-14T05:37:40.103Z,78.67
2016-02-14T05:38:40.089Z,78.49
2016-02-14T05:39:40.092Z,78.3
2016-02-14T05:40:40.079Z,78.96
2016-02-14T05:41:40.081Z,79.06
2016-02-14T05:42:40.084Z,78.87
2016-02-14T05:43:40.071Z,79.06
2016-02-14T05:44:40.074Z,79.06
2016-02-14T05:45:40.078Z,78.87
2016-02-14T05:46:40.064Z,78.77
2016-02-14T05:47:40.067Z,78.96
2016-02-14T05:48:40.053Z,79.34
2016-02-14T05:49:40.041Z,79.53
2016-02-14T05:50:40.059Z,79.15
2016-02-14T05:51:40.046Z,79.34
2016-02-14T05:52:40.049Z,79.44
2016-02-14T05:53:40.036Z,79.25
2016-02-14T05:54:40.039Z,79.72
2016-02-14T05:55:40.042Z,79.25
2016-02-14T05:56:40.044Z,79.06
2016-02-14T05:57:40.015Z,79.15
2016-02-14T05:58:40.018Z,79.34
2016-02-14T05:59:40.021Z,79.06
2016-02-14T06:00:40.007Z,79.34
2016-02-14T06:01:39.995Z,79.53
2016-02-14T06:02:39.998Z,79.34
2016-02-14T06:03:40.000Z,79.44
2016-02-14T06:04:40.024Z,79.15
2016-02-14T06:05:39.979Z,79.63
2016-02-14T06:06:39.982Z,79.53
2016-02-14T06:07:39.969Z,79.44
2016-02-14T06:08:39.972Z,79.34
2016-02-14T06:09:39.975Z,79.44
2016-02-14T06:10:39.961Z,79.25
2016-02-14T06:11:39.965Z,79.44
2016-02-14T06:12:39.951Z,79.25
2016-02-14T06:13:39.953Z,79.25
2016-02-14T06:14:39.956Z,79.25
2016-02-14T06:15:39.944Z,79.44
2016-02-14T06:16:39.946Z,79.34
2016-02-14T06:17:39.964Z,79.06
2016-02-14T06:18:39.936Z,79.34
2016-02-14T06:19:39.969Z,79.53
2016-02-14T06:20:39.927Z,79.25
2016-02-14T06:21:39.929Z,79.34
2016-02-14T06:22:39.931Z,79.34
2016-02-14T06:23:39.934Z,79.25
2016-02-14T06:24:39.905Z,79.44
2016-02-14T06:25:39.923Z,79.44
2016-02-14T06:26:39.926Z,79.53
2016-02-14T06:27:39.929Z,79.34
2016-02-14T06:28:39.916Z,79.53
2016-02-14T06:29:39.904Z,79.44
2016-02-14T06:30:39.906Z,79.44
2016-02-14T06:31:39.893Z,78.96
2016-02-14T06:32:39.896Z,79.15
2016-02-14T06:33:39.882Z,79.53
2016-02-14T06:34:39.885Z,79.25
2016-02-14T06:35:39.887Z,79.15
2016-02-14T06:36:39.891Z,79.53
2016-02-14T06:37:39.878Z,79.53
2016-02-14T06:38:39.912Z,79.25
2016-02-14T06:39:39.883Z,79.53
2016-02-14T06:40:39.870Z,79.53
2016-02-14T06:41:39.872Z,79.15
2016-02-14T06:42:39.876Z,79.15
2016-02-14T06:43:39.863Z,79.63
2016-02-14T06:44:39.865Z,79.53
2016-02-14T06:45:39.853Z,79.72
2016-02-14T06:46:39.855Z,79.15
2016-02-14T06:47:39.842Z,79.25
2016-02-14T06:48:39.845Z,79.15
2016-02-14T06:49:39.833Z,79.53
2016-02-14T06:50:39.835Z,79.53
2016-02-14T06:51:39.853Z,79.53
2016-02-14T06:52:39.855Z,79.44
2016-02-14T06:53:39.827Z,79.25
2016-02-14T06:54:39.830Z,79.63
2016-02-14T06:55:39.816Z,79.34
2016-02-14T06:56:39.835Z,79.44
2016-02-14T06:57:39.807Z,80
2016-02-14T06:58:39.810Z,79.15
2016-02-14T06:59:39.812Z,79.53
2016-02-14T07:00:40.096Z,79.15
2016-02-14T07:01:39.807Z,79.25
2016-02-14T07:02:39.783Z,79.1
2016-02-14T07:03:39.762Z,79.28
2016-02-14T07:04:40.019Z,79.19
2016-02-14T07:05:39.732Z,79.47
2016-02-14T07:06:39.731Z,79.47
2016-02-14T07:07:39.713Z,79.57
2016-02-14T07:08:39.713Z,79.47
2016-02-14T07:09:39.712Z,79.38
2016-02-14T07:10:39.696Z,79.66
2016-02-14T07:11:39.698Z,79.1
2016-02-14T07:12:39.700Z,79.57
2016-02-14T07:13:39.685Z,79.44
2016-02-14T07:14:39.686Z,79.57
2016-02-14T07:15:39.689Z,79.47
2016-02-14T07:16:39.691Z,79.47
2016-02-14T07:17:39.676Z,79.38
2016-02-14T07:18:39.679Z,79.47
2016-02-14T07:19:39.681Z,79.47
2016-02-14T07:20:39.669Z,79.19
2016-02-14T07:21:39.671Z,79.1
2016-02-14T07:22:39.689Z,79.57
2016-02-14T07:23:39.659Z,79.38
2016-02-14T07:24:39.662Z,79.57
2016-02-14T07:25:39.758Z,79.1
2016-02-14T07:26:39.667Z,79.66
2016-02-14T07:27:39.655Z,78.81
2016-02-14T07:28:39.658Z,78.72
2016-02-14T07:29:39.660Z,79
2016-02-14T07:30:39.724Z,79.19
2016-02-14T07:31:39.478Z,78.62
2016-02-14T07:32:39.652Z,79.1
2016-02-14T07:33:39.655Z,78.72
2016-02-14T07:34:39.642Z,79
2016-02-14T07:35:39.644Z,79
2016-02-14T07:36:39.632Z,78.91
2016-02-14T07:37:39.635Z,78.91
2016-02-14T07:38:39.637Z,78.91
2016-02-14T07:39:39.623Z,78.72
2016-02-14T07:40:39.627Z,78.53
2016-02-14T07:41:39.629Z,78.53
2016-02-14T07:42:39.632Z,79
2016-02-14T07:43:39.619Z,78.53
2016-02-14T07:44:39.606Z,79
2016-02-14T07:45:39.624Z,78.81
2016-02-14T07:46:39.612Z,79
2016-02-14T07:47:39.614Z,78.81
2016-02-14T07:48:39.617Z,78.91
2016-02-14T07:49:39.604Z,78.53
2016-02-14T07:50:39.450Z,78.75
2016-02-14T07:51:39.610Z,78.66
2016-02-14T07:52:39.597Z,79.04
2016-02-14T07:53:39.600Z,78.85
2016-02-14T07:54:39.602Z,79.04
2016-02-14T07:55:39.636Z,79.04
2016-02-14T07:56:39.639Z,78.75
2016-02-14T07:57:39.594Z,78.56
2016-02-14T07:58:39.597Z,78.85
2016-02-14T07:59:39.583Z,78.85
2016-02-14T08:00:39.587Z,78.47
2016-02-14T08:01:39.574Z,78.66
2016-02-14T08:02:39.577Z,78.28
2016-02-14T08:03:39.579Z,78.66
2016-02-14T08:04:39.582Z,78.47
2016-02-14T08:05:39.585Z,78.47
2016-02-14T08:06:39.571Z,78.66
2016-02-14T08:07:39.574Z,78.47
2016-02-14T08:08:39.577Z,78.38
2016-02-14T08:09:39.596Z,78.38
2016-02-14T08:10:39.566Z,78.47
2016-02-14T08:11:39.585Z,78.19
2016-02-14T08:12:39.571Z,78.47
2016-02-14T08:13:39.560Z,78.19
2016-02-14T08:14:39.562Z,78.47
2016-02-14T08:15:39.564Z,78.28
2016-02-14T08:16:39.552Z,78.19
2016-02-14T08:17:39.554Z,78.28
2016-02-14T08:18:39.557Z,78.28
2016-02-14T08:19:39.763Z,78.09
2016-02-14T08:20:39.562Z,78.66
2016-02-14T08:21:39.581Z,78.38
2016-02-14T08:22:39.553Z,78.47
2016-02-14T08:23:39.556Z,78.95
2016-02-14T08:24:39.557Z,78.56
2016-02-14T08:25:39.810Z,78.42
2016-02-14T08:26:39.563Z,78.51
2016-02-14T08:27:39.550Z,78.51
2016-02-14T08:28:39.537Z,78.32
2016-02-14T08:29:39.539Z,78.51
2016-02-14T08:30:39.542Z,78.7
2016-02-14T08:31:39.545Z,78.51
2016-02-14T08:32:39.547Z,78.61
2016-02-14T08:33:39.535Z,78.61
2016-02-14T08:34:39.553Z,78.23
2016-02-14T08:35:39.540Z,78.32
2016-02-14T08:36:39.544Z,78.42
2016-02-14T08:37:39.546Z,78.61
2016-02-14T08:38:39.532Z,78.13
2016-02-14T08:39:39.535Z,78.13
2016-02-14T08:40:39.522Z,78.23
2016-02-14T08:41:39.525Z,77.75
2016-02-14T08:42:39.559Z,77.75
2016-02-14T08:43:39.530Z,77.94
2016-02-14T08:44:39.517Z,77.84
2016-02-14T08:45:39.521Z,77.94
2016-02-14T08:46:39.523Z,77.56
2016-02-14T08:47:39.525Z,77.75
2016-02-14T08:48:39.512Z,77.66
2016-02-14T08:49:39.515Z,77.56
2016-02-14T08:50:39.518Z,77.56
2016-02-14T08:51:39.506Z,77.56
2016-02-14T08:52:39.523Z,77.66
2016-02-14T08:53:39.370Z,77.84
2016-02-14T08:54:40.201Z,77.41
2016-02-14T08:55:39.875Z,77.66
2016-02-14T08:56:39.597Z,77.6
2016-02-14T08:57:39.693Z,77.84
2016-02-14T08:58:39.602Z,77.7
2016-02-14T08:59:39.761Z,77.51
2016-02-14T09:00:39.747Z,77.6
2016-02-14T09:01:39.783Z,77.12
2016-02-14T09:02:39.706Z,77.12
2016-02-14T09:03:39.584Z,77.51
2016-02-14T09:04:39.697Z,77.22
2016-02-14T09:05:39.808Z,77.12
2016-02-14T09:06:39.624Z,77.03
2016-02-14T09:07:39.798Z,76.65
2016-02-14T09:08:39.644Z,76.93
2016-02-14T09:09:39.569Z,76.84
2016-02-14T09:10:39.759Z,76.37
2016-02-14T09:11:39.669Z,76.37
2016-02-14T09:12:39.765Z,76.27
2016-02-14T09:13:39.565Z,76.27
2016-02-14T09:14:39.535Z,76.46
2016-02-14T09:15:39.679Z,76.46
2016-02-14T09:16:39.776Z,76.37
2016-02-14T09:17:39.731Z,76.27
2016-02-14T09:18:39.968Z,76.37
2016-02-14T09:19:39.752Z,75.99
2016-02-14T09:20:39.662Z,76.08
2016-02-14T09:21:39.664Z,76.08
2016-02-14T09:22:38.979Z,76.08
2016-02-14T09:23:39.623Z,76.27
2016-02-14T09:24:39.672Z,76.18
2016-02-14T09:25:39.689Z,75.89
2016-02-14T09:26:39.693Z,75.6
2016-02-14T09:27:39.664Z,75.89
2016-02-14T09:28:39.714Z,76.18
2016-02-14T09:29:39.654Z,76.08
2016-02-14T09:30:39.766Z,75.55
2016-02-14T09:31:39.769Z,75.36
2016-02-14T09:32:39.600Z,75.45
2016-02-14T09:33:39.743Z,75.45
2016-02-14T09:34:39.621Z,75.17
2016-02-14T09:35:39.561Z,75.45
2016-02-14T09:36:39.547Z,74.98
2016-02-14T09:37:39.755Z,75.07
2016-02-14T09:38:39.741Z,75.45
2016-02-14T09:39:39.555Z,74.98
2016-02-14T09:40:39.638Z,75.26
2016-02-14T09:41:39.749Z,75.07
2016-02-14T09:42:39.517Z,74.79
2016-02-14T09:43:39.738Z,75.07
2016-02-14T09:44:39.679Z,74.79
2016-02-14T09:45:39.760Z,74.69
2016-02-14T09:46:39.590Z,74.98
2016-02-14T09:47:39.609Z,74.92
2016-02-14T09:48:39.752Z,74.26
2016-02-14T09:49:39.692Z,74.07
2016-02-14T09:50:39.757Z,74.35
2016-02-14T09:51:39.587Z,74.54
2016-02-14T09:52:39.716Z,74.07
2016-02-14T09:53:39.765Z,74.16
2016-02-14T09:54:39.706Z,74.44
2016-02-14T09:55:39.771Z,74.35
2016-02-14T09:56:39.601Z,74.54
2016-02-14T09:57:39.589Z,74.73
2016-02-14T09:58:39.779Z,73.69
2016-02-14T09:59:39.797Z,73.78
2016-02-14T10:00:39.659Z,74.07
2016-02-14T10:01:39.787Z,74.07
2016-02-14T10:02:39.900Z,73.97
2016-02-14T10:03:39.714Z,73.69
2016-02-14T10:04:38.982Z,73.91
2016-02-14T10:05:39.548Z,73.63
2016-02-14T10:06:39.785Z,73.44
2016-02-14T10:07:39.771Z,73.72
2016-02-14T10:08:40.103Z,73.72
2016-02-14T10:09:39.699Z,73.91
2016-02-14T10:10:39.764Z,74.01
2016-02-14T10:11:39.830Z,73.72
2016-02-14T10:12:39.879Z,73.82
2016-02-14T10:13:39.741Z,73.82
2016-02-14T10:14:39.650Z,73.53
2016-02-14T10:15:39.731Z,73.63
2016-02-14T10:16:39.874Z,72.86
2016-02-14T10:17:39.752Z,72.77
2016-02-14T10:18:39.568Z,73.15
2016-02-14T10:19:39.757Z,72.58
2016-02-14T10:20:39.712Z,72.86
2016-02-14T10:21:39.716Z,72.9
2016-02-14T10:22:39.750Z,73.47
2016-02-14T10:23:39.658Z,72.96
2016-02-14T10:24:39.724Z,73.47
2016-02-14T10:25:39.883Z,73.28
2016-02-14T10:26:39.667Z,72.81
2016-02-14T10:27:39.670Z,72.05
2016-02-14T10:28:39.812Z,72.2
2016-02-14T10:29:39.612Z,72.39
2016-02-14T10:30:39.631Z,72.49
2016-02-14T10:31:39.711Z,72.14
2016-02-14T10:32:39.698Z,72.49
2016-02-14T10:33:39.670Z,72.3
2016-02-14T10:34:39.798Z,72.58
2016-02-14T10:35:39.785Z,72.11
2016-02-14T10:36:39.740Z,72.11
2016-02-14T10:37:39.793Z,72.11
2016-02-14T10:38:39.795Z,72.3
2016-02-14T10:39:39.720Z,72.39
2016-02-14T10:40:39.692Z,72.3
2016-02-14T10:41:39.788Z,72.39
2016-02-14T10:42:39.838Z,72.3
2016-02-14T10:43:39.794Z,72.33
2016-02-14T10:44:39.686Z,72.3
2016-02-14T10:45:39.846Z,72.3
2016-02-14T10:46:39.692Z,72.42
2016-02-14T10:47:39.757Z,72.24
2016-02-14T10:48:39.761Z,72.24
2016-02-14T10:49:39.700Z,72.05
2016-02-14T10:50:39.702Z,72.14
2016-02-14T10:51:39.862Z,72.42
2016-02-14T10:52:39.848Z,72.14
2016-02-14T10:53:39.773Z,72.42
2016-02-14T10:54:39.870Z,71.95
2016-02-14T10:55:39.888Z,72.33
2016-02-14T10:56:39.829Z,72.05
2016-02-14T10:57:39.753Z,71.86
2016-02-14T10:58:39.803Z,71.76
2016-02-14T10:59:39.759Z,71.57
2016-02-14T11:00:39.870Z,71.47
2016-02-14T11:01:39.717Z,71.57
2016-02-14T11:02:39.860Z,71.57
2016-02-14T11:03:39.910Z,70.9
2016-02-14T11:04:39.881Z,71.57
2016-02-14T11:05:39.790Z,70.52
2016-02-14T11:06:39.762Z,70.24
2016-02-14T11:07:39.905Z,70.47
2016-02-14T11:08:39.704Z,70.37
2016-02-14T11:09:39.708Z,70.18
2016-02-14T11:10:39.710Z,69.42
2016-02-14T11:11:39.697Z,68.46
2016-02-14T11:12:39.700Z,69.13
2016-02-14T11:13:39.889Z,69.04
2016-02-14T11:14:39.924Z,68.94
2016-02-14T11:15:39.927Z,68.37
2016-02-14T11:16:39.929Z,68.46
2016-02-14T11:17:39.979Z,67.99
2016-02-14T11:18:39.935Z,67.22
2016-02-14T11:19:39.922Z,67.03
2016-02-14T11:20:39.908Z,67.41
2016-02-14T11:21:40.021Z,66.46
2016-02-14T11:22:39.805Z,66.66
2016-02-14T11:23:39.963Z,66.27
2016-02-14T11:24:39.966Z,66.27
2016-02-14T11:25:39.937Z,65.89
2016-02-14T11:26:40.082Z,66.37
2016-02-14T11:27:40.021Z,67.7
2016-02-14T11:28:39.961Z,67.03
2016-02-14T11:29:39.965Z,66.94
2016-02-14T11:30:40.029Z,67.61
2016-02-14T11:31:40.000Z,67.32
2016-02-14T11:32:39.879Z,67.13
2016-02-14T11:33:39.990Z,66.37
2016-02-14T11:34:39.962Z,66.94
2016-02-14T11:35:39.996Z,66.85
2016-02-14T11:36:40.014Z,66.18
2016-02-14T11:37:39.876Z,66.18
2016-02-14T11:38:40.050Z,66.66
2016-02-14T11:40:53.981Z,66.94
2016-02-14T11:41:39.856Z,66.56
2016-02-14T11:42:40.499Z,66.66
2016-02-14T11:43:40.017Z,66.66
2016-02-14T11:44:39.973Z,66.18
2016-02-14T11:45:39.975Z,66.97
2016-02-14T11:46:40.353Z,66.94
2016-02-14T11:47:40.231Z,66.78
2016-02-14T11:48:39.983Z,66.66
2016-02-14T11:49:40.081Z,66.37
2016-02-14T11:50:40.052Z,66.27
2016-02-14T11:51:39.836Z,66.85
2016-02-14T11:52:39.823Z,66.94
2016-02-14T11:53:39.825Z,66.75
2016-02-14T11:54:39.829Z,66.66
2016-02-14T11:55:39.846Z,66.94
2016-02-14T11:56:39.849Z,66.37
2016-02-14T11:57:40.133Z,66.94
2016-02-14T11:58:39.901Z,66.94
2016-02-14T11:59:40.217Z,67.13
2016-02-14T12:00:39.984Z,67.22
2016-02-14T12:01:40.018Z,67.61
2016-02-14T12:02:39.975Z,67.32
2016-02-14T12:03:40.102Z,66.94
2016-02-14T12:04:40.120Z,66.18
2016-02-14T12:05:39.998Z,65.89
2016-02-14T12:06:39.985Z,66.37
2016-02-14T12:07:39.956Z,65.45
2016-02-14T12:08:40.053Z,66.08
2016-02-14T12:09:40.025Z,65.64
2016-02-14T12:10:39.981Z,65.16
2016-02-14T12:11:39.967Z,65.36
2016-02-14T12:12:40.142Z,65.45
2016-02-14T12:13:39.973Z,65.73
2016-02-14T12:14:40.132Z,65.55
2016-02-14T12:15:39.978Z,65.26
2016-02-14T12:16:40.059Z,65.36
2016-02-14T12:17:40.077Z,65.45
2016-02-14T12:18:40.002Z,65.64
2016-02-14T12:19:40.004Z,65.64
2016-02-14T12:20:40.227Z,66.11
2016-02-14T12:21:40.119Z,65.64
2016-02-14T12:22:40.090Z,65.26
2016-02-14T12:23:40.063Z,65.16
2016-02-14T12:24:40.096Z,65.45
2016-02-14T12:25:40.115Z,65.55
2016-02-14T12:26:40.117Z,65.58
2016-02-14T12:27:40.183Z,65.64
2016-02-14T12:28:40.404Z,65.29
2016-02-14T12:29:40.047Z,65
2016-02-14T12:30:40.097Z,65
2016-02-14T12:31:40.099Z,65.39
2016-02-14T12:32:40.196Z,65.1
2016-02-14T12:33:40.136Z,64.53
2016-02-14T12:34:40.123Z,65.1
2016-02-14T12:35:39.360Z,64.62
2016-02-14T12:36:40.237Z,64.91
2016-02-14T12:37:40.115Z,64.91
2016-02-14T12:38:40.197Z,65
2016-02-14T12:39:40.200Z,65.2
2016-02-14T12:40:39.998Z,65.1
2016-02-14T12:41:40.220Z,64.81
2016-02-14T12:42:40.239Z,64.24
2016-02-14T12:43:40.272Z,64.24
2016-02-14T12:44:40.072Z,64.53
2016-02-14T12:45:40.137Z,64.05
2016-02-14T12:46:40.281Z,64.34
2016-02-14T12:47:40.111Z,64.43
2016-02-14T12:48:40.224Z,64.24
2016-02-14T12:49:40.194Z,64.43
2016-02-14T12:50:40.135Z,64.05
2016-02-14T12:51:40.153Z,64.15
2016-02-14T12:52:40.312Z,64.05
2016-02-14T12:53:39.472Z,63.7
2016-02-14T12:54:40.193Z,63.6
2016-02-14T12:55:40.227Z,64.09
2016-02-14T12:56:40.307Z,63.67